createdAt,value
2023-05-05T00:01:15.959Z,10.07
2023-05-05T00:03:42.907Z,10.80
2023-05-05T00:06:09.615Z,10.25
2023-05-05T00:08:36.675Z,11.65
2023-05-05T00:11:03.587Z,16.08
2023-05-05T00:13:30.400Z,12.70
2023-05-05T00:15:58.479Z,10.43
2023-05-05T00:18:25.193Z,11.10
2023-05-05T00:20:52.070Z,11.73
2023-05-05T00:23:19.735Z,11.02
2023-05-05T00:25:46.689Z,11.88
2023-05-05T00:28:13.427Z,15.02
2023-05-05T00:30:40.852Z,10.80
2023-05-05T00:33:08.951Z,10.57
2023-05-05T00:35:35.746Z,11.00
2023-05-05T00:38:02.469Z,10.57
2023-05-05T00:40:29.334Z,10.90
2023-05-05T00:42:56.226Z,10.43
2023-05-05T00:45:22.984Z,12.38
2023-05-05T00:47:52.466Z,11.80
2023-05-05T00:52:50.879Z,11.35
2023-05-05T00:55:18.389Z,13.10
2023-05-05T00:57:46.058Z,10.73
2023-05-05T01:00:13.737Z,11.60
2023-05-05T01:02:40.794Z,11.23
2023-05-05T01:05:08.490Z,11.57
2023-05-05T01:07:45.433Z,15.15
2023-05-05T01:10:20.646Z,12.00
2023-05-05T01:15:27.548Z,11.77
2023-05-05T01:17:59.630Z,15.02
2023-05-05T01:20:33.273Z,11.02
2023-05-05T01:23:05.992Z,12.93
2023-05-05T01:25:57.268Z,15.70
2023-05-05T01:28:38.205Z,15.07
2023-05-05T01:31:12.665Z,16.13
2023-05-05T01:33:45.878Z,13.95
2023-05-05T01:36:17.698Z,18.13
2023-05-05T01:38:46.026Z,18.35
2023-05-05T01:41:17.380Z,17.27
2023-05-05T01:43:48.471Z,15.13
2023-05-05T01:46:16.567Z,15.70
2023-05-05T01:48:46.443Z,17.52
2023-05-05T01:51:15.736Z,17.50
2023-05-05T01:53:42.984Z,14.05
2023-05-05T01:56:12.112Z,15.82
2023-05-05T01:58:40.548Z,16.45
2023-05-05T02:01:08.548Z,19.90
2023-05-05T02:03:37.737Z,15.20
2023-05-05T02:06:08.259Z,15.82
2023-05-05T02:08:37.936Z,18.17
2023-05-05T02:11:05.680Z,22.45
2023-05-05T02:13:32.896Z,53.67
2023-05-05T02:16:00.249Z,22.45
2023-05-05T02:18:27.494Z,20.95
2023-05-05T02:20:54.494Z,25.85
2023-05-05T02:23:22.894Z,17.40
2023-05-05T02:25:53.071Z,23.40
2023-05-05T02:28:23.015Z,22.02
2023-05-05T02:30:56.127Z,22.70
2023-05-05T02:33:25.553Z,22.17
2023-05-05T02:35:54.267Z,20.33
2023-05-05T02:38:28.666Z,23.42
2023-05-05T02:41:02.429Z,21.65
2023-05-05T02:43:31.532Z,22.25
2023-05-05T02:45:58.524Z,25.20
2023-05-05T02:48:25.858Z,22.45
2023-05-05T02:50:54.552Z,21.25
2023-05-05T02:53:29.285Z,24.17
2023-05-05T02:56:05.933Z,22.80
2023-05-05T02:58:42.221Z,20.95
2023-05-05T03:01:25.599Z,25.02
2023-05-05T03:04:00.986Z,21.92
2023-05-05T03:06:29.665Z,26.92
2023-05-05T03:09:05.685Z,23.00
2023-05-05T03:11:36.907Z,20.50
2023-05-05T03:14:10.076Z,22.40
2023-05-05T03:16:39.775Z,21.13
2023-05-05T03:19:10.289Z,26.40
2023-05-05T03:21:37.604Z,26.35
2023-05-05T03:24:14.713Z,25.17
2023-05-05T03:26:43.837Z,23.70
2023-05-05T03:29:11.117Z,27.15
2023-05-05T03:31:39.795Z,23.75
2023-05-05T03:34:06.916Z,31.33
2023-05-05T03:36:40.314Z,25.10
2023-05-05T03:39:10.355Z,23.85
2023-05-05T03:41:39.224Z,25.00
2023-05-05T03:44:08.739Z,27.55
2023-05-05T03:46:36.861Z,113.57
2023-05-05T03:49:05.486Z,31.48
2023-05-05T03:51:32.989Z,34.13
2023-05-05T03:54:00.265Z,35.47
2023-05-05T03:56:27.363Z,23.85
2023-05-05T03:58:55.458Z,27.95
2023-05-05T04:01:22.480Z,34.25
2023-05-05T04:03:49.264Z,33.75
2023-05-05T04:06:16.122Z,36.33
2023-05-05T04:08:42.958Z,28.92
2023-05-05T04:11:09.834Z,31.30
2023-05-05T04:13:36.700Z,36.90
2023-05-05T04:16:05.178Z,29.35
2023-05-05T04:18:32.177Z,28.35
2023-05-05T04:20:59.296Z,31.60
2023-05-05T04:23:26.673Z,30.27
2023-05-05T04:25:53.896Z,32.28
2023-05-05T04:28:21.772Z,49.80
2023-05-05T04:30:49.110Z,44.80
2023-05-05T04:33:17.492Z,45.95
2023-05-05T04:35:46.256Z,47.30
2023-05-05T04:38:13.086Z,49.97
2023-05-05T04:40:40.400Z,51.85
2023-05-05T04:43:08.622Z,49.95
2023-05-05T04:45:36.609Z,54.97
2023-05-05T04:48:03.702Z,51.42
2023-05-05T04:50:33.263Z,51.97
2023-05-05T04:53:00.224Z,45.20
2023-05-05T04:55:27.268Z,49.00
2023-05-05T04:57:54.043Z,43.97
2023-05-05T05:00:20.981Z,43.28
2023-05-05T05:02:47.802Z,47.95
2023-05-05T05:05:14.568Z,51.22
2023-05-05T05:07:42.961Z,48.92
2023-05-05T05:10:10.498Z,45.47
2023-05-05T05:12:37.532Z,42.00
2023-05-05T05:15:05.521Z,43.53
2023-05-05T05:17:32.488Z,41.00
2023-05-05T05:20:00.335Z,45.05
2023-05-05T05:22:28.049Z,49.33
2023-05-05T05:24:56.242Z,106.53
2023-05-05T05:27:23.103Z,58.58
2023-05-05T05:29:52.294Z,60.45
2023-05-05T05:32:19.105Z,59.30
2023-05-05T05:34:46.069Z,53.55
2023-05-05T05:37:13.270Z,55.92
2023-05-05T05:39:42.654Z,47.22
2023-05-05T05:42:12.261Z,41.33
2023-05-05T05:44:39.644Z,36.38
2023-05-05T05:47:06.575Z,39.92
2023-05-05T05:49:33.561Z,35.65
2023-05-05T05:52:01.184Z,44.33
2023-05-05T05:54:28.501Z,44.75
2023-05-05T05:56:55.511Z,34.72
2023-05-05T05:59:23.715Z,42.47
2023-05-05T06:01:50.519Z,39.88
2023-05-05T06:04:17.404Z,40.33
2023-05-05T06:06:44.218Z,45.55
2023-05-05T06:09:11.037Z,40.60
2023-05-05T06:11:38.076Z,49.22
2023-05-05T06:14:06.078Z,38.30
2023-05-05T06:16:34.405Z,52.53
2023-05-05T06:19:05.050Z,35.60
2023-05-05T06:21:32.001Z,34.60
2023-05-05T06:23:59.099Z,32.30
2023-05-05T06:26:26.270Z,32.85
2023-05-05T06:28:53.191Z,34.67
2023-05-05T06:31:19.957Z,32.55
2023-05-05T06:33:48.323Z,34.13
2023-05-05T06:36:15.087Z,33.22
2023-05-05T06:38:42.267Z,34.00
2023-05-05T06:41:09.048Z,30.35
2023-05-05T06:43:35.871Z,35.70
2023-05-05T06:46:07.734Z,28.15
2023-05-05T06:48:34.560Z,23.80
2023-05-05T06:51:03.872Z,26.58
2023-05-05T06:53:31.122Z,28.48
2023-05-05T06:55:57.822Z,27.25
2023-05-05T06:58:25.061Z,29.25
2023-05-05T07:00:51.996Z,26.80
2023-05-05T07:03:19.133Z,24.67
2023-05-05T07:05:45.996Z,29.45
2023-05-05T07:08:14.170Z,22.20
2023-05-05T07:10:40.958Z,20.58
2023-05-05T07:15:56.785Z,21.42
2023-05-05T07:18:23.472Z,23.13
2023-05-05T07:20:50.235Z,15.27
2023-05-05T07:23:18.453Z,21.33
2023-05-05T07:25:45.378Z,24.23
2023-05-05T07:28:12.207Z,19.73
2023-05-05T07:30:38.934Z,17.13
2023-05-05T07:33:05.680Z,16.33
2023-05-05T07:35:32.593Z,20.83
2023-05-05T07:37:59.291Z,18.02
2023-05-05T07:40:27.697Z,11.40
2023-05-05T07:42:54.444Z,7.72
2023-05-05T07:45:21.256Z,6.43
2023-05-05T07:47:48.129Z,5.88
2023-05-05T07:50:15.096Z,5.40
2023-05-05T07:52:46.588Z,5.15
2023-05-05T07:55:16.788Z,4.82
2023-05-05T07:57:45.266Z,6.00
2023-05-05T08:00:13.296Z,5.85
2023-05-05T08:02:40.278Z,6.45
2023-05-05T08:05:08.384Z,5.30
2023-05-05T08:07:35.338Z,5.72
2023-05-05T08:10:02.207Z,6.18
2023-05-05T08:12:29.130Z,9.05
2023-05-05T08:14:57.271Z,6.28
2023-05-05T08:17:24.172Z,7.57
2023-05-05T08:19:52.207Z,7.95
2023-05-05T08:22:19.010Z,6.40
2023-05-05T08:24:45.725Z,9.10
2023-05-05T08:27:12.504Z,7.22
2023-05-05T08:29:39.340Z,5.50
2023-05-05T08:32:07.784Z,4.53
2023-05-05T08:34:34.518Z,4.75
2023-05-05T08:37:01.250Z,5.00
2023-05-05T08:39:28.014Z,5.43
2023-05-05T08:41:54.803Z,6.28
2023-05-05T08:44:21.527Z,6.20
2023-05-05T08:46:49.812Z,5.57
2023-05-05T08:49:18.916Z,5.18
2023-05-05T08:51:46.744Z,5.75
2023-05-05T08:54:18.161Z,4.60
2023-05-05T08:56:47.182Z,5.82
2023-05-05T08:59:15.901Z,9.35
2023-05-05T09:01:44.168Z,5.22
2023-05-05T09:04:11.217Z,6.38
2023-05-05T09:06:39.930Z,7.78
2023-05-05T09:09:06.954Z,6.93
2023-05-05T09:11:34.468Z,5.63
2023-05-05T09:16:45.932Z,6.65
2023-05-05T09:19:12.736Z,8.40
2023-05-05T09:21:47.340Z,6.78
2023-05-05T09:24:14.078Z,5.55
2023-05-05T09:26:42.622Z,6.13
2023-05-05T09:29:09.898Z,5.78
2023-05-05T09:31:37.259Z,6.47
2023-05-05T09:34:14.447Z,6.65
2023-05-05T09:36:44.490Z,5.65
2023-05-05T09:39:14.282Z,5.07
2023-05-05T09:45:35.755Z,33.05
2023-05-05T09:48:02.767Z,6.43
2023-05-05T09:50:29.661Z,5.20
2023-05-05T09:52:59.217Z,6.03
2023-05-05T09:55:26.130Z,4.90
2023-05-05T09:57:52.982Z,7.93
2023-05-05T10:00:20.792Z,5.43
2023-05-05T10:02:47.772Z,4.82
2023-05-05T10:09:19.802Z,6.22
2023-05-05T10:11:47.134Z,5.63
2023-05-05T10:14:18.606Z,6.97
2023-05-05T10:16:48.405Z,6.20
2023-05-05T10:19:16.335Z,10.45
2023-05-05T10:21:47.212Z,7.72
2023-05-05T10:24:20.582Z,6.82
2023-05-05T10:26:52.151Z,6.63
2023-05-05T10:29:27.846Z,5.75
2023-05-05T10:31:58.678Z,5.40
2023-05-05T10:34:31.080Z,6.63
2023-05-05T10:36:57.946Z,5.25
2023-05-05T10:39:26.378Z,6.30
2023-05-05T10:41:54.606Z,6.57
2023-05-05T10:44:22.932Z,6.45
2023-05-05T10:46:50.093Z,8.48
2023-05-05T10:49:25.035Z,6.05
2023-05-05T10:51:57.889Z,5.20
2023-05-05T10:54:30.677Z,5.60
2023-05-05T10:57:00.607Z,4.85
2023-05-05T10:59:40.640Z,6.20
2023-05-05T11:02:25.003Z,9.20
2023-05-05T11:05:11.872Z,7.68
2023-05-05T11:07:38.761Z,6.78
2023-05-05T11:10:07.642Z,6.38
2023-05-05T11:13:19.612Z,5.75
2023-05-05T11:15:46.780Z,9.07
2023-05-05T11:18:32.197Z,7.20
2023-05-05T11:21:06.706Z,6.55
2023-05-05T11:23:33.714Z,6.90
2023-05-05T11:26:00.484Z,6.60
2023-05-05T11:28:30.054Z,7.18
2023-05-05T11:31:18.724Z,8.38
2023-05-05T11:33:45.706Z,6.82
2023-05-05T11:36:13.736Z,6.43
2023-05-05T11:38:52.715Z,6.97
2023-05-05T11:41:30.725Z,7.07
2023-05-05T11:44:10.848Z,6.47
2023-05-05T11:46:39.506Z,6.47
2023-05-05T11:49:07.435Z,7.63
2023-05-05T11:51:34.313Z,7.32
2023-05-05T11:54:01.059Z,7.53
2023-05-05T11:56:27.873Z,9.85
2023-05-05T11:59:09.163Z,8.25
2023-05-05T12:01:39.935Z,7.03
2023-05-05T12:04:07.009Z,6.47
2023-05-05T12:06:33.944Z,7.53
2023-05-05T12:09:01.140Z,7.95
2023-05-05T12:11:27.845Z,8.10
2023-05-05T12:14:07.909Z,9.88
2023-05-05T12:16:34.666Z,8.43
2023-05-05T12:19:07.659Z,11.73
2023-05-05T12:21:35.331Z,8.85
2023-05-05T12:24:02.269Z,16.35
2023-05-05T12:30:33.737Z,12.82
2023-05-05T12:33:01.560Z,9.75
2023-05-05T12:35:30.429Z,9.10
2023-05-05T12:37:57.211Z,11.63
2023-05-05T12:40:43.514Z,8.80
2023-05-05T12:43:10.351Z,9.32
2023-05-05T12:45:37.048Z,10.20
2023-05-05T12:48:21.656Z,8.75
2023-05-05T12:50:49.711Z,8.35
2023-05-05T12:53:21.061Z,10.32
2023-05-05T12:55:47.822Z,11.63
2023-05-05T12:58:14.542Z,11.88
2023-05-05T13:00:41.441Z,14.43
2023-05-05T13:03:18.892Z,12.27
2023-05-05T13:05:46.020Z,8.90
2023-05-05T13:08:14.586Z,12.63
2023-05-05T13:10:56.376Z,11.02
2023-05-05T13:13:23.087Z,10.02
2023-05-05T13:15:49.814Z,12.68
2023-05-05T13:18:16.504Z,14.85
2023-05-05T13:20:43.220Z,11.23
2023-05-05T13:23:09.917Z,11.75
2023-05-05T13:25:37.972Z,10.02
2023-05-05T13:28:05.107Z,10.50
2023-05-05T13:30:31.790Z,10.98
2023-05-05T13:32:58.578Z,10.80
2023-05-05T13:35:25.396Z,10.73
2023-05-05T13:37:52.222Z,12.77
2023-05-05T13:40:18.939Z,11.25
2023-05-05T13:42:47.044Z,11.77
2023-05-05T13:45:13.803Z,11.10
2023-05-05T13:47:40.547Z,10.98
2023-05-05T13:50:08.061Z,16.88
2023-05-05T13:52:34.793Z,12.43
2023-05-05T13:55:01.536Z,10.35
2023-05-05T13:57:28.476Z,10.15
2023-05-05T14:04:08.740Z,12.75
2023-05-05T14:06:35.884Z,12.68
2023-05-05T14:09:03.050Z,18.67
2023-05-05T14:11:29.724Z,16.17
2023-05-05T14:13:56.460Z,15.55
2023-05-05T14:20:47.335Z,57.80
2023-05-05T14:23:14.067Z,36.53
2023-05-05T14:25:40.779Z,19.88
2023-05-05T14:28:07.649Z,84.03
2023-05-05T14:30:34.381Z,33.13
2023-05-05T14:33:01.222Z,42.30
2023-05-05T14:35:28.096Z,18.60
2023-05-05T14:37:56.275Z,30.13
2023-05-05T14:40:23.290Z,119.65
2023-05-05T14:42:49.897Z,16.70
2023-05-05T14:45:16.792Z,32.72
2023-05-05T14:47:43.496Z,14.40
2023-05-05T14:54:36.713Z,35.28
2023-05-05T14:57:03.862Z,19.65
2023-05-05T15:03:24.783Z,13.35
2023-05-05T15:05:51.634Z,13.02
2023-05-05T15:08:18.456Z,14.85
2023-05-05T15:14:41.031Z,10.27
2023-05-05T15:17:07.743Z,25.60
2023-05-05T15:19:34.684Z,12.68
2023-05-05T15:22:01.324Z,11.52
2023-05-05T15:24:28.058Z,14.18
2023-05-05T15:26:54.834Z,8.88
2023-05-05T15:29:22.291Z,11.60
2023-05-05T15:31:50.885Z,6.20
2023-05-05T15:34:17.890Z,7.32
2023-05-05T15:36:47.921Z,7.15
2023-05-05T15:39:14.828Z,6.07
2023-05-05T15:41:42.182Z,7.72
2023-05-05T15:44:11.627Z,10.43
2023-05-05T15:46:38.530Z,18.20
2023-05-05T15:49:06.733Z,12.45
2023-05-05T15:51:33.445Z,12.25
2023-05-05T15:54:00.459Z,36.63
2023-05-05T15:56:27.558Z,155.38
2023-05-05T15:58:54.313Z,9.88
2023-05-05T16:01:21.429Z,11.27
2023-05-05T16:03:48.166Z,16.95
2023-05-05T16:06:16.312Z,9.60
2023-05-05T16:08:43.086Z,9.40
2023-05-05T16:11:11.055Z,8.27
2023-05-05T16:13:38.041Z,10.32
2023-05-05T16:16:05.444Z,11.93
2023-05-05T16:18:32.237Z,11.50
2023-05-05T16:20:59.006Z,10.05
2023-05-05T16:23:27.268Z,9.45
2023-05-05T16:25:54.175Z,9.77
2023-05-05T16:28:21.659Z,21.35
2023-05-05T16:30:48.525Z,8.82
2023-05-05T16:33:15.524Z,9.15
2023-05-05T16:35:43.957Z,12.63
2023-05-05T16:38:10.781Z,10.98
2023-05-05T16:40:40.175Z,11.50
2023-05-05T16:43:07.584Z,9.80
2023-05-05T16:45:34.361Z,9.45
2023-05-05T16:48:01.418Z,10.23
2023-05-05T16:54:22.927Z,10.18
2023-05-05T17:00:44.893Z,14.02
2023-05-05T17:03:11.606Z,17.92
2023-05-05T17:05:38.469Z,9.43
2023-05-05T17:08:05.175Z,9.98
2023-05-05T17:10:31.868Z,12.18
2023-05-05T17:12:58.573Z,13.93
2023-05-05T17:15:25.346Z,10.77
2023-05-05T17:17:53.438Z,9.77
2023-05-05T17:20:20.374Z,9.95
2023-05-05T17:22:47.273Z,12.43
2023-05-05T17:25:13.994Z,11.57
2023-05-05T17:27:40.745Z,11.68
2023-05-05T17:30:09.033Z,18.25
2023-05-05T17:32:35.709Z,10.02
2023-05-05T17:35:04.042Z,17.75
2023-05-05T17:37:30.725Z,12.43
2023-05-05T17:39:57.508Z,10.80
2023-05-05T17:42:24.236Z,9.93
2023-05-05T17:44:50.920Z,10.70
2023-05-05T17:47:17.806Z,8.85
2023-05-05T17:49:44.509Z,7.90
2023-05-05T17:52:12.717Z,11.02
2023-05-05T17:54:39.408Z,9.93
2023-05-05T17:57:06.257Z,8.30
2023-05-05T17:59:32.996Z,8.75
2023-05-05T18:01:59.884Z,11.57
2023-05-05T18:08:31.464Z,7.45
2023-05-05T18:10:58.167Z,7.82
2023-05-05T18:13:24.988Z,8.38
2023-05-05T18:19:55.515Z,10.80
2023-05-05T18:22:22.209Z,9.95
2023-05-05T18:28:55.084Z,11.27
2023-05-05T18:31:29.001Z,14.30
2023-05-05T18:33:55.829Z,11.25
2023-05-05T18:40:26.039Z,13.73
2023-05-05T18:42:52.732Z,10.43
2023-05-05T18:49:24.483Z,13.13
2023-05-05T18:51:51.206Z,10.15
2023-05-05T18:54:17.980Z,14.77
2023-05-05T18:56:44.710Z,12.40
2023-05-05T18:59:11.452Z,10.10
2023-05-05T19:01:38.142Z,12.05
2023-05-05T19:04:08.517Z,10.68
2023-05-05T19:06:41.036Z,10.98
2023-05-05T19:09:07.835Z,11.13
2023-05-05T19:11:34.569Z,12.57
2023-05-05T19:14:01.348Z,11.60
2023-05-05T19:16:30.045Z,36.60
2023-05-05T19:18:56.884Z,45.17
2023-05-05T19:21:23.576Z,12.52
2023-05-05T19:23:51.697Z,15.23
2023-05-05T19:26:18.415Z,13.90
2023-05-05T19:28:45.129Z,16.77
2023-05-05T19:31:11.862Z,14.65
2023-05-05T19:33:38.734Z,15.07
2023-05-05T19:36:05.900Z,16.90
2023-05-05T19:38:32.658Z,12.02
2023-05-05T19:41:00.915Z,15.63
2023-05-05T19:43:27.756Z,18.25
2023-05-05T19:45:54.562Z,15.75
2023-05-05T19:48:21.517Z,19.48
2023-05-05T19:50:48.293Z,17.30
2023-05-05T19:53:15.023Z,17.58
2023-05-05T19:55:41.930Z,19.98
2023-05-05T19:58:10.016Z,19.50
2023-05-05T20:00:36.745Z,19.35
2023-05-05T20:03:03.510Z,19.80
2023-05-05T20:05:30.261Z,21.80
2023-05-05T20:07:57.124Z,22.83
2023-05-05T20:10:23.901Z,31.52
2023-05-05T20:12:50.649Z,24.63
2023-05-05T20:15:20.517Z,27.75
2023-05-05T20:17:48.032Z,26.65
2023-05-05T20:20:17.286Z,25.45
2023-05-05T20:22:44.599Z,25.60
2023-05-05T20:25:11.401Z,30.35
2023-05-05T20:27:38.274Z,23.05
2023-05-05T20:30:06.459Z,23.77
2023-05-05T20:32:34.932Z,24.33
2023-05-05T20:35:02.217Z,26.90
2023-05-05T20:37:29.036Z,28.17
2023-05-05T20:39:55.751Z,25.27
2023-05-05T20:42:22.466Z,25.98
2023-05-05T20:44:49.192Z,26.40
2023-05-05T20:47:15.879Z,24.73
2023-05-05T20:49:43.979Z,26.85
2023-05-05T20:52:10.682Z,30.08
2023-05-05T20:54:37.388Z,34.30
2023-05-05T20:57:04.283Z,29.33
2023-05-05T20:59:31.162Z,27.67
2023-05-05T21:01:58.011Z,34.22
2023-05-05T21:04:24.805Z,39.53
2023-05-05T21:06:52.984Z,44.03
2023-05-05T21:09:19.764Z,40.42
2023-05-05T21:11:46.477Z,44.58
2023-05-05T21:14:13.207Z,37.13
2023-05-05T21:16:40.007Z,37.30
2023-05-05T21:19:06.958Z,28.42
2023-05-05T21:21:33.733Z,30.52
2023-05-05T21:24:02.226Z,31.40
2023-05-05T21:26:29.005Z,29.85
2023-05-05T21:28:55.699Z,29.30
2023-05-05T21:31:22.822Z,34.83
2023-05-05T21:33:49.779Z,29.02
2023-05-05T21:36:16.998Z,30.95
2023-05-05T21:38:43.745Z,28.70
2023-05-05T21:41:11.841Z,39.55
2023-05-05T21:43:38.608Z,34.28
2023-05-05T21:46:05.990Z,35.78
2023-05-05T21:48:32.889Z,30.33
2023-05-05T21:50:59.677Z,34.65
2023-05-05T21:53:26.540Z,29.02
2023-05-05T21:55:53.416Z,30.23
2023-05-05T21:58:23.221Z,27.63
2023-05-05T22:00:50.324Z,28.58
2023-05-05T22:03:17.472Z,28.00
2023-05-05T22:05:44.348Z,26.58
2023-05-05T22:08:11.254Z,26.10
2023-05-05T22:10:38.159Z,22.17
2023-05-05T22:13:05.055Z,21.90
2023-05-05T22:15:45.347Z,22.60
2023-05-05T22:20:40.112Z,22.73
2023-05-05T22:23:06.954Z,23.38
2023-05-05T22:25:33.702Z,26.42
2023-05-05T22:28:00.707Z,24.33
2023-05-05T22:30:27.923Z,24.60
2023-05-05T22:32:56.433Z,29.55
2023-05-05T22:35:23.376Z,24.73
2023-05-05T22:37:50.245Z,22.35
2023-05-05T22:40:17.606Z,32.58
2023-05-05T22:42:44.382Z,30.20
2023-05-05T22:45:16.244Z,32.08
2023-05-05T22:47:43.383Z,32.10
2023-05-05T22:50:11.884Z,28.73
2023-05-05T22:52:38.639Z,29.30
2023-05-05T22:55:05.863Z,34.25
2023-05-05T22:57:34.866Z,32.47
2023-05-05T23:00:02.207Z,28.85
2023-05-05T23:02:29.040Z,29.50
2023-05-05T23:04:55.837Z,32.70
2023-05-05T23:07:23.976Z,39.33
2023-05-05T23:09:50.690Z,30.15
2023-05-05T23:40:53.645Z,29.83
2023-05-05T23:59:32.549Z,28.63
